sensor_id;sensor_type;location;lat;lon;timestamp;P1;durP1;ratioP1;P2;durP2;ratioP2
70832;SDS011;58452;59.418;17.962;2022-12-07T00:01:28;10.38;;;4.65;;
70832;SDS011;58452;59.418;17.962;2022-12-07T00:03:59;10.25;;;4.18;;
70832;SDS011;58452;59.418;17.962;2022-12-07T00:06:30;12.63;;;4.45;;
70832;SDS011;58452;59.418;17.962;2022-12-07T00:08:56;11.05;;;5.00;;
70832;SDS011;58452;59.418;17.962;2022-12-07T00:11:22;11.68;;;4.05;;
70832;SDS011;58452;59.418;17.962;2022-12-07T00:13:52;12.27;;;5.65;;
70832;SDS011;58452;59.418;17.962;2022-12-07T00:16:20;11.52;;;4.82;;
70832;SDS011;58452;59.418;17.962;2022-12-07T00:18:47;14.07;;;4.82;;
70832;SDS011;58452;59.418;17.962;2022-12-07T00:23:39;10.93;;;4.90;;
70832;SDS011;58452;59.418;17.962;2022-12-07T00:28:30;6.32;;;3.85;;
70832;SDS011;58452;59.418;17.962;2022-12-07T00:31:00;8.20;;;3.90;;
70832;SDS011;58452;59.418;17.962;2022-12-07T00:33:26;7.15;;;3.15;;
70832;SDS011;58452;59.418;17.962;2022-12-07T00:35:57;8.88;;;4.45;;
70832;SDS011;58452;59.418;17.962;2022-12-07T00:38:23;10.00;;;4.32;;
70832;SDS011;58452;59.418;17.962;2022-12-07T00:40:56;6.55;;;3.40;;
70832;SDS011;58452;59.418;17.962;2022-12-07T00:43:42;7.85;;;3.30;;
70832;SDS011;58452;59.418;17.962;2022-12-07T00:46:09;7.15;;;3.30;;
70832;SDS011;58452;59.418;17.962;2022-12-07T00:48:35;10.20;;;3.72;;
70832;SDS011;58452;59.418;17.962;2022-12-07T00:51:00;5.22;;;2.97;;
70832;SDS011;58452;59.418;17.962;2022-12-07T00:53:26;7.38;;;3.42;;
70832;SDS011;58452;59.418;17.962;2022-12-07T00:55:52;10.30;;;2.97;;
70832;SDS011;58452;59.418;17.962;2022-12-07T00:58:18;7.32;;;3.50;;
70832;SDS011;58452;59.418;17.962;2022-12-07T01:00:44;7.50;;;3.55;;
70832;SDS011;58452;59.418;17.962;2022-12-07T01:03:11;8.73;;;2.90;;
70832;SDS011;58452;59.418;17.962;2022-12-07T01:05:37;4.68;;;2.67;;
70832;SDS011;58452;59.418;17.962;2022-12-07T01:08:03;8.30;;;3.42;;
70832;SDS011;58452;59.418;17.962;2022-12-07T01:10:29;7.00;;;2.78;;
70832;SDS011;58452;59.418;17.962;2022-12-07T01:12:56;5.22;;;3.08;;
70832;SDS011;58452;59.418;17.962;2022-12-07T01:15:22;5.10;;;2.72;;
70832;SDS011;58452;59.418;17.962;2022-12-07T01:17:48;4.32;;;2.60;;
70832;SDS011;58452;59.418;17.962;2022-12-07T01:20:14;7.10;;;2.92;;
70832;SDS011;58452;59.418;17.962;2022-12-07T01:22:41;5.47;;;2.50;;
70832;SDS011;58452;59.418;17.962;2022-12-07T01:25:11;4.32;;;2.67;;
70832;SDS011;58452;59.418;17.962;2022-12-07T01:27:36;5.93;;;2.92;;
70832;SDS011;58452;59.418;17.962;2022-12-07T01:30:05;7.22;;;3.28;;
70832;SDS011;58452;59.418;17.962;2022-12-07T01:32:31;5.70;;;3.20;;
70832;SDS011;58452;59.418;17.962;2022-12-07T01:34:57;7.22;;;2.80;;
70832;SDS011;58452;59.418;17.962;2022-12-07T01:37:23;3.72;;;2.88;;
70832;SDS011;58452;59.418;17.962;2022-12-07T01:39:48;8.35;;;3.45;;
70832;SDS011;58452;59.418;17.962;2022-12-07T01:42:15;8.35;;;2.97;;
70832;SDS011;58452;59.418;17.962;2022-12-07T01:47:50;4.40;;;2.42;;
70832;SDS011;58452;59.418;17.962;2022-12-07T01:50:19;5.57;;;3.15;;
70832;SDS011;58452;59.418;17.962;2022-12-07T01:52:47;5.20;;;2.97;;
70832;SDS011;58452;59.418;17.962;2022-12-07T01:55:15;10.65;;;2.90;;
70832;SDS011;58452;59.418;17.962;2022-12-07T01:57:43;4.97;;;2.47;;
70832;SDS011;58452;59.418;17.962;2022-12-07T02:00:12;8.25;;;2.35;;
70832;SDS011;58452;59.418;17.962;2022-12-07T02:02:42;6.05;;;2.58;;
70832;SDS011;58452;59.418;17.962;2022-12-07T02:05:12;5.57;;;2.45;;
70832;SDS011;58452;59.418;17.962;2022-12-07T02:07:38;5.75;;;2.63;;
70832;SDS011;58452;59.418;17.962;2022-12-07T02:10:13;4.18;;;2.08;;
70832;SDS011;58452;59.418;17.962;2022-12-07T02:12:40;4.32;;;2.78;;
70832;SDS011;58452;59.418;17.962;2022-12-07T02:15:10;5.50;;;2.92;;
70832;SDS011;58452;59.418;17.962;2022-12-07T02:17:45;6.30;;;3.30;;
70832;SDS011;58452;59.418;17.962;2022-12-07T02:28:52;8.48;;;2.42;;
70832;SDS011;58452;59.418;17.962;2022-12-07T02:31:12;6.07;;;2.60;;
70832;SDS011;58452;59.418;17.962;2022-12-07T02:33:44;5.43;;;2.42;;
70832;SDS011;58452;59.418;17.962;2022-12-07T02:36:22;4.35;;;2.20;;
70832;SDS011;58452;59.418;17.962;2022-12-07T02:38:55;7.40;;;2.55;;
70832;SDS011;58452;59.418;17.962;2022-12-07T02:41:37;7.40;;;3.45;;
70832;SDS011;58452;59.418;17.962;2022-12-07T02:44:08;5.90;;;2.38;;
70832;SDS011;58452;59.418;17.962;2022-12-07T02:46:42;4.57;;;2.20;;
70832;SDS011;58452;59.418;17.962;2022-12-07T02:49:11;9.93;;;3.03;;
70832;SDS011;58452;59.418;17.962;2022-12-07T02:51:44;6.38;;;2.63;;
70832;SDS011;58452;59.418;17.962;2022-12-07T02:54:12;7.07;;;2.22;;
70832;SDS011;58452;59.418;17.962;2022-12-07T03:07:18;8.85;;;2.63;;
70832;SDS011;58452;59.418;17.962;2022-12-07T03:12:18;4.57;;;2.63;;
70832;SDS011;58452;59.418;17.962;2022-12-07T03:14:49;5.95;;;2.28;;
70832;SDS011;58452;59.418;17.962;2022-12-07T03:17:23;13.88;;;2.47;;
70832;SDS011;58452;59.418;17.962;2022-12-07T03:19:51;7.53;;;2.08;;
70832;SDS011;58452;59.418;17.962;2022-12-07T03:22:20;5.03;;;2.05;;
70832;SDS011;58452;59.418;17.962;2022-12-07T03:24:55;7.03;;;3.08;;
70832;SDS011;58452;59.418;17.962;2022-12-07T03:27:25;3.70;;;2.00;;
70832;SDS011;58452;59.418;17.962;2022-12-07T03:30:02;5.68;;;2.72;;
70832;SDS011;58452;59.418;17.962;2022-12-07T03:35:22;4.05;;;1.92;;
70832;SDS011;58452;59.418;17.962;2022-12-07T03:37:50;3.28;;;2.15;;
70832;SDS011;58452;59.418;17.962;2022-12-07T03:41:07;2.80;;;1.88;;
70832;SDS011;58452;59.418;17.962;2022-12-07T03:43:12;6.32;;;2.55;;
70832;SDS011;58452;59.418;17.962;2022-12-07T03:45:41;4.35;;;2.35;;
70832;SDS011;58452;59.418;17.962;2022-12-07T03:51:04;5.95;;;1.95;;
70832;SDS011;58452;59.418;17.962;2022-12-07T03:56:22;6.25;;;2.05;;
70832;SDS011;58452;59.418;17.962;2022-12-07T03:58:48;5.05;;;2.40;;
70832;SDS011;58452;59.418;17.962;2022-12-07T04:01:14;3.63;;;2.17;;
70832;SDS011;58452;59.418;17.962;2022-12-07T04:03:39;6.45;;;3.15;;
70832;SDS011;58452;59.418;17.962;2022-12-07T04:06:05;5.78;;;2.08;;
70832;SDS011;58452;59.418;17.962;2022-12-07T04:08:30;4.72;;;2.35;;
70832;SDS011;58452;59.418;17.962;2022-12-07T04:10:56;7.53;;;2.28;;
70832;SDS011;58452;59.418;17.962;2022-12-07T04:13:21;4.90;;;2.25;;
70832;SDS011;58452;59.418;17.962;2022-12-07T04:15:46;4.65;;;2.15;;
70832;SDS011;58452;59.418;17.962;2022-12-07T04:18:12;4.28;;;2.05;;
70832;SDS011;58452;59.418;17.962;2022-12-07T04:20:37;4.47;;;1.95;;
70832;SDS011;58452;59.418;17.962;2022-12-07T04:23:02;4.65;;;1.98;;
70832;SDS011;58452;59.418;17.962;2022-12-07T04:25:28;8.07;;;2.03;;
70832;SDS011;58452;59.418;17.962;2022-12-07T04:27:53;10.95;;;3.13;;
70832;SDS011;58452;59.418;17.962;2022-12-07T04:30:19;4.43;;;1.80;;
70832;SDS011;58452;59.418;17.962;2022-12-07T04:32:44;6.35;;;3.22;;
70832;SDS011;58452;59.418;17.962;2022-12-07T04:35:10;5.97;;;2.13;;
70832;SDS011;58452;59.418;17.962;2022-12-07T04:37:35;3.03;;;1.88;;
70832;SDS011;58452;59.418;17.962;2022-12-07T04:40:01;4.70;;;2.47;;
70832;SDS011;58452;59.418;17.962;2022-12-07T04:42:26;3.35;;;1.52;;
70832;SDS011;58452;59.418;17.962;2022-12-07T04:44:52;6.47;;;2.28;;
70832;SDS011;58452;59.418;17.962;2022-12-07T04:47:18;5.35;;;1.90;;
70832;SDS011;58452;59.418;17.962;2022-12-07T04:49:43;4.25;;;2.03;;
70832;SDS011;58452;59.418;17.962;2022-12-07T04:52:09;6.50;;;2.00;;
70832;SDS011;58452;59.418;17.962;2022-12-07T04:54:34;6.57;;;2.05;;
70832;SDS011;58452;59.418;17.962;2022-12-07T04:56:59;5.35;;;1.95;;
70832;SDS011;58452;59.418;17.962;2022-12-07T04:59:25;6.05;;;1.55;;
70832;SDS011;58452;59.418;17.962;2022-12-07T05:01:50;9.13;;;1.98;;
70832;SDS011;58452;59.418;17.962;2022-12-07T05:04:15;5.60;;;2.90;;
70832;SDS011;58452;59.418;17.962;2022-12-07T05:06:42;7.15;;;2.58;;
70832;SDS011;58452;59.418;17.962;2022-12-07T05:09:11;4.70;;;2.30;;
70832;SDS011;58452;59.418;17.962;2022-12-07T05:11:36;6.53;;;2.65;;
70832;SDS011;58452;59.418;17.962;2022-12-07T05:16:30;5.38;;;2.30;;
70832;SDS011;58452;59.418;17.962;2022-12-07T05:18:56;2.70;;;1.90;;
70832;SDS011;58452;59.418;17.962;2022-12-07T05:21:21;4.10;;;1.73;;
70832;SDS011;58452;59.418;17.962;2022-12-07T05:23:47;3.30;;;1.45;;
70832;SDS011;58452;59.418;17.962;2022-12-07T05:26:12;3.30;;;2.15;;
70832;SDS011;58452;59.418;17.962;2022-12-07T05:28:37;5.18;;;2.65;;
70832;SDS011;58452;59.418;17.962;2022-12-07T05:31:03;7.43;;;2.70;;
70832;SDS011;58452;59.418;17.962;2022-12-07T05:33:28;2.47;;;1.85;;
70832;SDS011;58452;59.418;17.962;2022-12-07T05:35:54;4.15;;;1.90;;
70832;SDS011;58452;59.418;17.962;2022-12-07T05:38:19;5.72;;;1.90;;
70832;SDS011;58452;59.418;17.962;2022-12-07T05:40:44;4.00;;;1.92;;
70832;SDS011;58452;59.418;17.962;2022-12-07T05:43:10;5.53;;;2.60;;
70832;SDS011;58452;59.418;17.962;2022-12-07T05:45:35;5.20;;;1.77;;
70832;SDS011;58452;59.418;17.962;2022-12-07T05:48:00;4.93;;;1.98;;
70832;SDS011;58452;59.418;17.962;2022-12-07T05:50:26;4.97;;;1.98;;
70832;SDS011;58452;59.418;17.962;2022-12-07T05:52:52;2.30;;;1.70;;
70832;SDS011;58452;59.418;17.962;2022-12-07T05:55:18;3.78;;;1.73;;
70832;SDS011;58452;59.418;17.962;2022-12-07T05:57:43;3.47;;;1.52;;
70832;SDS011;58452;59.418;17.962;2022-12-07T06:00:28;5.50;;;2.47;;
70832;SDS011;58452;59.418;17.962;2022-12-07T06:02:54;4.00;;;2.08;;
70832;SDS011;58452;59.418;17.962;2022-12-07T06:05:19;10.55;;;3.17;;
70832;SDS011;58452;59.418;17.962;2022-12-07T06:07:44;4.57;;;2.00;;
70832;SDS011;58452;59.418;17.962;2022-12-07T06:10:10;2.92;;;1.80;;
70832;SDS011;58452;59.418;17.962;2022-12-07T06:12:35;8.25;;;2.53;;
70832;SDS011;58452;59.418;17.962;2022-12-07T06:15:03;6.10;;;2.13;;
70832;SDS011;58452;59.418;17.962;2022-12-07T06:17:29;6.72;;;2.00;;
70832;SDS011;58452;59.418;17.962;2022-12-07T06:19:54;2.78;;;1.80;;
70832;SDS011;58452;59.418;17.962;2022-12-07T06:22:19;5.15;;;1.80;;
70832;SDS011;58452;59.418;17.962;2022-12-07T06:24:45;3.70;;;1.58;;
70832;SDS011;58452;59.418;17.962;2022-12-07T06:27:10;5.55;;;2.83;;
70832;SDS011;58452;59.418;17.962;2022-12-07T06:29:36;4.00;;;1.70;;
70832;SDS011;58452;59.418;17.962;2022-12-07T06:32:02;3.10;;;1.58;;
70832;SDS011;58452;59.418;17.962;2022-12-07T06:34:28;5.18;;;2.17;;
70832;SDS011;58452;59.418;17.962;2022-12-07T06:36:53;7.00;;;3.28;;
70832;SDS011;58452;59.418;17.962;2022-12-07T06:39:24;6.63;;;3.13;;
70832;SDS011;58452;59.418;17.962;2022-12-07T06:41:51;6.65;;;4.00;;
70832;SDS011;58452;59.418;17.962;2022-12-07T06:44:17;4.80;;;2.75;;
70832;SDS011;58452;59.418;17.962;2022-12-07T06:46:43;8.13;;;3.05;;
70832;SDS011;58452;59.418;17.962;2022-12-07T06:49:09;7.20;;;2.05;;
70832;SDS011;58452;59.418;17.962;2022-12-07T06:51:34;2.78;;;1.70;;
70832;SDS011;58452;59.418;17.962;2022-12-07T06:54:02;6.35;;;2.40;;
70832;SDS011;58452;59.418;17.962;2022-12-07T06:56:30;4.22;;;1.45;;
70832;SDS011;58452;59.418;17.962;2022-12-07T06:58:55;3.63;;;1.67;;
70832;SDS011;58452;59.418;17.962;2022-12-07T07:01:21;6.53;;;2.03;;
70832;SDS011;58452;59.418;17.962;2022-12-07T07:03:46;6.65;;;2.10;;
70832;SDS011;58452;59.418;17.962;2022-12-07T07:06:12;4.78;;;1.95;;
70832;SDS011;58452;59.418;17.962;2022-12-07T07:08:38;6.07;;;2.30;;
70832;SDS011;58452;59.418;17.962;2022-12-07T07:11:04;5.30;;;1.80;;
70832;SDS011;58452;59.418;17.962;2022-12-07T07:13:31;4.32;;;2.70;;
70832;SDS011;58452;59.418;17.962;2022-12-07T07:15:57;5.97;;;2.30;;
70832;SDS011;58452;59.418;17.962;2022-12-07T07:18:23;5.70;;;1.95;;
70832;SDS011;58452;59.418;17.962;2022-12-07T07:20:50;7.55;;;2.10;;
70832;SDS011;58452;59.418;17.962;2022-12-07T07:23:16;5.63;;;1.92;;
70832;SDS011;58452;59.418;17.962;2022-12-07T07:25:41;4.05;;;1.88;;
70832;SDS011;58452;59.418;17.962;2022-12-07T07:28:06;5.57;;;2.92;;
70832;SDS011;58452;59.418;17.962;2022-12-07T07:30:32;7.80;;;2.60;;
70832;SDS011;58452;59.418;17.962;2022-12-07T07:32:58;8.50;;;3.60;;
70832;SDS011;58452;59.418;17.962;2022-12-07T07:35:25;10.48;;;3.40;;
70832;SDS011;58452;59.418;17.962;2022-12-07T07:37:51;7.93;;;3.47;;
70832;SDS011;58452;59.418;17.962;2022-12-07T07:40:17;5.25;;;2.30;;
70832;SDS011;58452;59.418;17.962;2022-12-07T07:42:42;3.92;;;3.20;;
70832;SDS011;58452;59.418;17.962;2022-12-07T07:45:08;4.85;;;1.80;;
70832;SDS011;58452;59.418;17.962;2022-12-07T07:47:33;9.07;;;2.40;;
70832;SDS011;58452;59.418;17.962;2022-12-07T07:49:59;6.35;;;2.65;;
70832;SDS011;58452;59.418;17.962;2022-12-07T07:52:24;6.53;;;2.35;;
70832;SDS011;58452;59.418;17.962;2022-12-07T07:54:50;4.10;;;2.05;;
70832;SDS011;58452;59.418;17.962;2022-12-07T07:57:18;3.92;;;2.50;;
70832;SDS011;58452;59.418;17.962;2022-12-07T07:59:44;7.07;;;3.58;;
70832;SDS011;58452;59.418;17.962;2022-12-07T08:02:14;7.88;;;2.00;;
70832;SDS011;58452;59.418;17.962;2022-12-07T08:04:41;6.45;;;1.80;;
70832;SDS011;58452;59.418;17.962;2022-12-07T08:07:10;10.93;;;2.00;;
70832;SDS011;58452;59.418;17.962;2022-12-07T08:09:36;3.88;;;2.20;;
70832;SDS011;58452;59.418;17.962;2022-12-07T08:12:02;5.07;;;1.67;;
70832;SDS011;58452;59.418;17.962;2022-12-07T08:14:27;8.55;;;2.38;;
70832;SDS011;58452;59.418;17.962;2022-12-07T08:16:53;5.25;;;2.40;;
70832;SDS011;58452;59.418;17.962;2022-12-07T08:19:19;4.65;;;1.92;;
70832;SDS011;58452;59.418;17.962;2022-12-07T08:21:45;5.60;;;2.25;;
70832;SDS011;58452;59.418;17.962;2022-12-07T08:24:10;5.78;;;2.92;;
70832;SDS011;58452;59.418;17.962;2022-12-07T08:26:36;10.95;;;2.47;;
70832;SDS011;58452;59.418;17.962;2022-12-07T08:29:01;10.07;;;2.20;;
70832;SDS011;58452;59.418;17.962;2022-12-07T08:31:27;5.20;;;2.70;;
70832;SDS011;58452;59.418;17.962;2022-12-07T08:33:54;3.10;;;1.90;;
70832;SDS011;58452;59.418;17.962;2022-12-07T08:36:20;2.38;;;1.35;;
70832;SDS011;58452;59.418;17.962;2022-12-07T08:38:46;2.88;;;1.80;;
70832;SDS011;58452;59.418;17.962;2022-12-07T08:41:12;8.88;;;1.90;;
70832;SDS011;58452;59.418;17.962;2022-12-07T08:43:37;2.88;;;1.52;;
70832;SDS011;58452;59.418;17.962;2022-12-07T08:46:19;7.57;;;2.38;;
70832;SDS011;58452;59.418;17.962;2022-12-07T08:48:50;3.75;;;2.15;;
70832;SDS011;58452;59.418;17.962;2022-12-07T08:51:40;3.90;;;1.75;;
70832;SDS011;58452;59.418;17.962;2022-12-07T08:54:07;3.28;;;1.63;;
70832;SDS011;58452;59.418;17.962;2022-12-07T08:56:35;2.60;;;1.38;;
70832;SDS011;58452;59.418;17.962;2022-12-07T08:59:01;2.55;;;1.75;;
70832;SDS011;58452;59.418;17.962;2022-12-07T09:01:28;4.32;;;2.20;;
70832;SDS011;58452;59.418;17.962;2022-12-07T09:03:53;2.00;;;1.15;;
70832;SDS011;58452;59.418;17.962;2022-12-07T09:06:19;4.57;;;1.77;;
70832;SDS011;58452;59.418;17.962;2022-12-07T09:08:46;3.08;;;1.85;;
70832;SDS011;58452;59.418;17.962;2022-12-07T09:11:15;3.67;;;1.55;;
70832;SDS011;58452;59.418;17.962;2022-12-07T09:13:40;2.85;;;1.90;;
70832;SDS011;58452;59.418;17.962;2022-12-07T09:16:06;3.67;;;1.27;;
70832;SDS011;58452;59.418;17.962;2022-12-07T09:18:31;2.80;;;1.45;;
70832;SDS011;58452;59.418;17.962;2022-12-07T09:20:57;6.53;;;1.85;;
70832;SDS011;58452;59.418;17.962;2022-12-07T09:23:22;4.57;;;2.53;;
70832;SDS011;58452;59.418;17.962;2022-12-07T09:25:48;2.72;;;1.50;;
70832;SDS011;58452;59.418;17.962;2022-12-07T09:28:13;6.43;;;2.25;;
70832;SDS011;58452;59.418;17.962;2022-12-07T09:30:44;4.85;;;2.42;;
70832;SDS011;58452;59.418;17.962;2022-12-07T09:33:10;6.10;;;2.53;;
70832;SDS011;58452;59.418;17.962;2022-12-07T09:35:35;5.85;;;2.20;;
70832;SDS011;58452;59.418;17.962;2022-12-07T09:38:01;4.70;;;1.80;;
70832;SDS011;58452;59.418;17.962;2022-12-07T09:40:27;5.07;;;2.05;;
70832;SDS011;58452;59.418;17.962;2022-12-07T09:42:53;3.90;;;1.90;;
70832;SDS011;58452;59.418;17.962;2022-12-07T09:45:24;5.25;;;1.80;;
70832;SDS011;58452;59.418;17.962;2022-12-07T09:47:55;6.25;;;2.60;;
70832;SDS011;58452;59.418;17.962;2022-12-07T09:50:24;9.00;;;1.77;;
70832;SDS011;58452;59.418;17.962;2022-12-07T09:52:52;6.03;;;2.13;;
70832;SDS011;58452;59.418;17.962;2022-12-07T09:55:22;5.38;;;2.35;;
70832;SDS011;58452;59.418;17.962;2022-12-07T09:57:52;7.10;;;2.22;;
70832;SDS011;58452;59.418;17.962;2022-12-07T10:00:19;4.97;;;2.03;;
70832;SDS011;58452;59.418;17.962;2022-12-07T10:02:51;5.13;;;2.35;;
70832;SDS011;58452;59.418;17.962;2022-12-07T10:05:25;7.55;;;2.78;;
70832;SDS011;58452;59.418;17.962;2022-12-07T10:07:55;16.45;;;2.20;;
70832;SDS011;58452;59.418;17.962;2022-12-07T10:10:25;3.95;;;2.05;;
70832;SDS011;58452;59.418;17.962;2022-12-07T10:13:08;4.97;;;2.15;;
70832;SDS011;58452;59.418;17.962;2022-12-07T10:15:47;5.45;;;2.38;;
70832;SDS011;58452;59.418;17.962;2022-12-07T10:20:42;9.43;;;2.15;;
70832;SDS011;58452;59.418;17.962;2022-12-07T10:23:16;6.47;;;2.38;;
70832;SDS011;58452;59.418;17.962;2022-12-07T10:25:43;5.53;;;2.05;;
70832;SDS011;58452;59.418;17.962;2022-12-07T10:28:14;6.40;;;1.70;;
70832;SDS011;58452;59.418;17.962;2022-12-07T10:34:15;13.57;;;2.85;;
70832;SDS011;58452;59.418;17.962;2022-12-07T10:36:45;3.15;;;1.95;;
70832;SDS011;58452;59.418;17.962;2022-12-07T10:39:11;5.70;;;2.00;;
70832;SDS011;58452;59.418;17.962;2022-12-07T10:41:57;6.03;;;1.73;;
70832;SDS011;58452;59.418;17.962;2022-12-07T10:44:26;8.02;;;3.47;;
70832;SDS011;58452;59.418;17.962;2022-12-07T10:49:32;2.88;;;1.70;;
70832;SDS011;58452;59.418;17.962;2022-12-07T10:55:16;3.30;;;1.80;;
70832;SDS011;58452;59.418;17.962;2022-12-07T11:00:52;5.63;;;1.80;;
70832;SDS011;58452;59.418;17.962;2022-12-07T11:06:17;3.50;;;1.98;;
70832;SDS011;58452;59.418;17.962;2022-12-07T11:09:04;5.03;;;1.60;;
70832;SDS011;58452;59.418;17.962;2022-12-07T11:28:15;5.10;;;1.55;;
70832;SDS011;58452;59.418;17.962;2022-12-07T11:31:14;4.93;;;1.98;;
70832;SDS011;58452;59.418;17.962;2022-12-07T11:34:15;9.10;;;1.75;;
70832;SDS011;58452;59.418;17.962;2022-12-07T11:36:56;2.83;;;1.80;;
70832;SDS011;58452;59.418;17.962;2022-12-07T11:39:26;6.15;;;1.52;;
70832;SDS011;58452;59.418;17.962;2022-12-07T11:42:03;4.03;;;2.03;;
70832;SDS011;58452;59.418;17.962;2022-12-07T11:44:44;6.03;;;2.00;;
70832;SDS011;58452;59.418;17.962;2022-12-07T11:47:35;6.43;;;2.10;;
70832;SDS011;58452;59.418;17.962;2022-12-07T11:56:21;3.70;;;1.30;;
70832;SDS011;58452;59.418;17.962;2022-12-07T12:06:38;4.15;;;1.48;;
70832;SDS011;58452;59.418;17.962;2022-12-07T12:09:06;9.27;;;2.97;;
70832;SDS011;58452;59.418;17.962;2022-12-07T12:14:39;9.80;;;4.45;;
70832;SDS011;58452;59.418;17.962;2022-12-07T12:22:39;6.30;;;1.98;;
70832;SDS011;58452;59.418;17.962;2022-12-07T12:25:15;4.80;;;1.25;;
70832;SDS011;58452;59.418;17.962;2022-12-07T12:27:55;8.70;;;2.78;;
70832;SDS011;58452;59.418;17.962;2022-12-07T12:30:29;5.50;;;1.73;;
70832;SDS011;58452;59.418;17.962;2022-12-07T12:33:01;2.85;;;1.50;;
70832;SDS011;58452;59.418;17.962;2022-12-07T12:35:31;1.90;;;1.52;;
70832;SDS011;58452;59.418;17.962;2022-12-07T12:40:58;4.50;;;1.58;;
70832;SDS011;58452;59.418;17.962;2022-12-07T12:48:55;4.38;;;1.85;;
70832;SDS011;58452;59.418;17.962;2022-12-07T12:51:39;2.53;;;1.25;;
70832;SDS011;58452;59.418;17.962;2022-12-07T12:54:19;4.97;;;1.35;;
70832;SDS011;58452;59.418;17.962;2022-12-07T12:59:31;3.38;;;1.45;;
70832;SDS011;58452;59.418;17.962;2022-12-07T13:12:56;5.00;;;1.40;;
70832;SDS011;58452;59.418;17.962;2022-12-07T13:15:38;3.78;;;1.80;;
70832;SDS011;58452;59.418;17.962;2022-12-07T13:23:20;4.68;;;1.52;;
70832;SDS011;58452;59.418;17.962;2022-12-07T13:28:35;4.28;;;1.10;;
70832;SDS011;58452;59.418;17.962;2022-12-07T13:31:13;4.95;;;2.25;;
70832;SDS011;58452;59.418;17.962;2022-12-07T13:33:40;8.07;;;1.52;;
70832;SDS011;58452;59.418;17.962;2022-12-07T13:36:12;2.33;;;1.40;;
70832;SDS011;58452;59.418;17.962;2022-12-07T13:38:51;8.63;;;1.65;;
70832;SDS011;58452;59.418;17.962;2022-12-07T13:41:24;3.47;;;1.60;;
70832;SDS011;58452;59.418;17.962;2022-12-07T13:43:53;4.82;;;1.60;;
70832;SDS011;58452;59.418;17.962;2022-12-07T13:46:27;3.30;;;1.98;;
70832;SDS011;58452;59.418;17.962;2022-12-07T13:49:00;6.55;;;3.03;;
70832;SDS011;58452;59.418;17.962;2022-12-07T13:51:27;8.25;;;2.80;;
70832;SDS011;58452;59.418;17.962;2022-12-07T13:53:54;7.35;;;2.78;;
70832;SDS011;58452;59.418;17.962;2022-12-07T13:56:21;5.53;;;1.85;;
70832;SDS011;58452;59.418;17.962;2022-12-07T13:58:51;3.75;;;1.52;;
70832;SDS011;58452;59.418;17.962;2022-12-07T14:01:16;4.18;;;2.20;;
70832;SDS011;58452;59.418;17.962;2022-12-07T14:03:43;9.35;;;2.65;;
70832;SDS011;58452;59.418;17.962;2022-12-07T14:06:23;8.00;;;2.88;;
70832;SDS011;58452;59.418;17.962;2022-12-07T14:09:05;8.45;;;2.08;;
70832;SDS011;58452;59.418;17.962;2022-12-07T14:11:42;8.57;;;2.45;;
70832;SDS011;58452;59.418;17.962;2022-12-07T14:14:14;5.85;;;2.63;;
70832;SDS011;58452;59.418;17.962;2022-12-07T14:16:42;5.50;;;2.20;;
70832;SDS011;58452;59.418;17.962;2022-12-07T14:22:23;6.88;;;2.60;;
70832;SDS011;58452;59.418;17.962;2022-12-07T14:24:58;4.00;;;1.92;;
70832;SDS011;58452;59.418;17.962;2022-12-07T14:27:24;6.53;;;3.22;;
70832;SDS011;58452;59.418;17.962;2022-12-07T14:29:55;8.65;;;2.80;;
70832;SDS011;58452;59.418;17.962;2022-12-07T14:32:23;8.95;;;2.83;;
70832;SDS011;58452;59.418;17.962;2022-12-07T14:35:03;12.30;;;4.32;;
70832;SDS011;58452;59.418;17.962;2022-12-07T14:37:36;16.35;;;6.80;;
70832;SDS011;58452;59.418;17.962;2022-12-07T14:40:03;7.60;;;3.97;;
70832;SDS011;58452;59.418;17.962;2022-12-07T14:42:29;5.80;;;2.53;;
70832;SDS011;58452;59.418;17.962;2022-12-07T14:44:56;6.88;;;2.83;;
70832;SDS011;58452;59.418;17.962;2022-12-07T14:47:23;3.67;;;2.03;;
70832;SDS011;58452;59.418;17.962;2022-12-07T14:49:49;10.00;;;2.63;;
70832;SDS011;58452;59.418;17.962;2022-12-07T14:52:16;4.22;;;1.95;;
70832;SDS011;58452;59.418;17.962;2022-12-07T14:54:45;11.30;;;3.80;;
70832;SDS011;58452;59.418;17.962;2022-12-07T14:57:11;8.50;;;3.20;;
70832;SDS011;58452;59.418;17.962;2022-12-07T14:59:37;3.72;;;1.88;;
70832;SDS011;58452;59.418;17.962;2022-12-07T15:02:03;6.70;;;1.88;;
70832;SDS011;58452;59.418;17.962;2022-12-07T15:04:28;7.13;;;2.75;;
70832;SDS011;58452;59.418;17.962;2022-12-07T15:06:57;7.72;;;2.85;;
70832;SDS011;58452;59.418;17.962;2022-12-07T15:09:25;5.95;;;2.30;;
70832;SDS011;58452;59.418;17.962;2022-12-07T15:11:50;8.85;;;2.53;;
70832;SDS011;58452;59.418;17.962;2022-12-07T15:14:16;6.35;;;2.47;;
70832;SDS011;58452;59.418;17.962;2022-12-07T15:16:43;7.57;;;2.38;;
70832;SDS011;58452;59.418;17.962;2022-12-07T15:19:19;10.68;;;2.40;;
70832;SDS011;58452;59.418;17.962;2022-12-07T15:21:48;3.90;;;1.73;;
70832;SDS011;58452;59.418;17.962;2022-12-07T15:24:14;8.68;;;2.25;;
70832;SDS011;58452;59.418;17.962;2022-12-07T15:26:39;5.30;;;2.65;;
70832;SDS011;58452;59.418;17.962;2022-12-07T15:29:05;6.15;;;2.08;;
70832;SDS011;58452;59.418;17.962;2022-12-07T15:31:31;10.13;;;3.85;;
70832;SDS011;58452;59.418;17.962;2022-12-07T15:33:57;6.75;;;2.28;;
70832;SDS011;58452;59.418;17.962;2022-12-07T15:36:24;8.77;;;2.30;;
70832;SDS011;58452;59.418;17.962;2022-12-07T15:38:51;7.22;;;4.03;;
70832;SDS011;58452;59.418;17.962;2022-12-07T15:41:16;9.40;;;3.47;;
70832;SDS011;58452;59.418;17.962;2022-12-07T15:43:42;4.72;;;2.58;;
70832;SDS011;58452;59.418;17.962;2022-12-07T15:46:33;7.68;;;3.30;;
70832;SDS011;58452;59.418;17.962;2022-12-07T15:49:09;9.20;;;4.47;;
70832;SDS011;58452;59.418;17.962;2022-12-07T15:51:40;8.75;;;3.40;;
70832;SDS011;58452;59.418;17.962;2022-12-07T15:54:07;5.05;;;2.75;;
70832;SDS011;58452;59.418;17.962;2022-12-07T15:56:33;7.60;;;3.08;;
70832;SDS011;58452;59.418;17.962;2022-12-07T15:58:59;7.32;;;2.67;;
70832;SDS011;58452;59.418;17.962;2022-12-07T16:01:24;8.85;;;3.70;;
70832;SDS011;58452;59.418;17.962;2022-12-07T16:03:50;10.15;;;3.88;;
70832;SDS011;58452;59.418;17.962;2022-12-07T16:06:16;12.63;;;3.80;;
70832;SDS011;58452;59.418;17.962;2022-12-07T16:08:42;12.45;;;5.20;;
70832;SDS011;58452;59.418;17.962;2022-12-07T16:11:09;12.65;;;4.15;;
70832;SDS011;58452;59.418;17.962;2022-12-07T16:13:35;10.77;;;4.28;;
70832;SDS011;58452;59.418;17.962;2022-12-07T16:16:04;11.40;;;3.80;;
70832;SDS011;58452;59.418;17.962;2022-12-07T16:18:33;13.93;;;3.92;;
70832;SDS011;58452;59.418;17.962;2022-12-07T16:20:59;12.13;;;3.40;;
70832;SDS011;58452;59.418;17.962;2022-12-07T16:23:24;7.80;;;3.58;;
70832;SDS011;58452;59.418;17.962;2022-12-07T16:25:50;7.40;;;3.20;;
70832;SDS011;58452;59.418;17.962;2022-12-07T16:28:15;7.15;;;3.25;;
70832;SDS011;58452;59.418;17.962;2022-12-07T16:30:40;9.80;;;3.95;;
70832;SDS011;58452;59.418;17.962;2022-12-07T16:33:06;9.50;;;4.38;;
70832;SDS011;58452;59.418;17.962;2022-12-07T16:35:31;9.70;;;3.85;;
70832;SDS011;58452;59.418;17.962;2022-12-07T16:37:56;8.30;;;3.70;;
70832;SDS011;58452;59.418;17.962;2022-12-07T16:40:22;24.85;;;4.80;;
70832;SDS011;58452;59.418;17.962;2022-12-07T16:42:48;7.82;;;3.88;;
70832;SDS011;58452;59.418;17.962;2022-12-07T16:45:13;7.50;;;2.80;;
70832;SDS011;58452;59.418;17.962;2022-12-07T16:47:39;12.07;;;3.58;;
70832;SDS011;58452;59.418;17.962;2022-12-07T16:50:05;6.18;;;3.13;;
70832;SDS011;58452;59.418;17.962;2022-12-07T16:52:31;6.53;;;4.45;;